Mc Cool, Mississippi
Current Conditions -  °F | °C
As of 2:35 PM on Thursday 29 Jan 2015 (Local Time) from KSTF Reporting Station
Clear Clear  
Wind Chill: 70°   Ceiling: Unl
Heat Index: 70°   Visibility: 10mi
Dew Point: 48°   Wind: 9mph
Humidity: 46%   Direction: 230°SW
Pressure: 30.08"   Gusts: NA
Location:  33.1664°N, 89.3301°W
Report Text: KSTF 292035Z AUTO 23008KT 10SM CLR 21/09 A3008 RMK AO2
Loading
Personal Weather Stations






























Interactive Weather Map New forecast layout! Learn more

10-Day Weather Forecast

Advertisements
Track Severe Weather on mobile